This is the latest recevied weather packets stored in our database for station/object OE-11373. If no packets are shown the sender has not sent any weather packets the latest 10 day(s).
| Time | Temp. | Humidity | Pressure | Rain* | Wind** | Luminosity | Snow |
|---|---|---|---|---|---|---|---|
| 1788176114 | 17.22° C | 73% | 853.7 hPa | - | - | - | - |
| 1788175513 | 17.22° C | 74% | 853.6 hPa | - | - | - | - |
| 1788174687 | 17.22° C | 73% | 853.7 hPa | - | - | - | - |
| 1788174313 | 17.78° C | 70% | 853.7 hPa | - | - | - | - |
| 1788173714 | 18.33° C | 72% | 853.8 hPa | - | - | - | - |
| 1788172886 | 16.67° C | 72% | 853.6 hPa | - | - | - | - |
| 1788171914 | 17.78° C | 71% | 853.8 hPa | - | - | - | - |
| 1788171087 | 17.22° C | 73% | 853.7 hPa | - | - | - | - |
| 1788170714 | 16.67° C | 73% | 853.8 hPa | - | - | - | - |
| 1788170113 | 16.67° C | 71% | 853.7 hPa | - | - | - | - |
| 1788169287 | 16.67° C | 73% | 853.7 hPa | - | - | - | - |
| 1788168914 | 16.11° C | 75% | 853.5 hPa | - | - | - | - |
| 1788168313 | 16.11° C | 77% | 853.6 hPa | - | - | - | - |
| 1788167486 | 16.11° C | 75% | 853.5 hPa | - | - | - | - |
| 1788167113 | 16.11° C | 76% | 853.5 hPa | - | - | - | - |
| 1788166513 | 16.67° C | 75% | 853.6 hPa | - | - | - | - |
| 1788165687 | 16.11° C | 74% | 853.4 hPa | - | - | - | - |
| 1788164714 | 16.67° C | 75% | 853.6 hPa | - | - | - | - |
| 1788163887 | 16.67° C | 73% | 853.5 hPa | - | - | - | - |
| 1788163514 | 16.67° C | 75% | 853.4 hPa | - | - | - | - |
| 1788162914 | 16.11° C | 74% | 853.4 hPa | - | - | - | - |
| 1788161714 | 16.11° C | 70% | 853.3 hPa | - | - | - | - |
| 1788161114 | 16.11° C | 70% | 853.1 hPa | - | - | - | - |
| 1788160287 | 15.56° C | 71% | 853.1 hPa | - | - | - | - |
| 1788159914 | 15.56° C | 70% | 853 hPa | - | - | - | - |
* Rain since midnight (hover to see other rain measurements)
** Current wind speed in m/s (hover to see current wind gust speed)